sensor_id;sensor_type;location;lat;lon;timestamp;temperature;humidity
21108;DHT22;10712;52.944;9.098;2023-03-21T00:01:58;8.40;93.80
21108;DHT22;10712;52.944;9.098;2023-03-21T00:04:25;8.40;93.90
21108;DHT22;10712;52.944;9.098;2023-03-21T00:06:51;8.40;93.90
21108;DHT22;10712;52.944;9.098;2023-03-21T00:09:18;8.40;93.90
21108;DHT22;10712;52.944;9.098;2023-03-21T00:11:44;8.40;93.90
21108;DHT22;10712;52.944;9.098;2023-03-21T00:14:10;8.40;93.90
21108;DHT22;10712;52.944;9.098;2023-03-21T00:16:39;8.40;94.00
21108;DHT22;10712;52.944;9.098;2023-03-21T00:19:05;8.40;94.00
21108;DHT22;10712;52.944;9.098;2023-03-21T00:21:32;8.40;94.00
21108;DHT22;10712;52.944;9.098;2023-03-21T00:24:04;8.40;94.10
21108;DHT22;10712;52.944;9.098;2023-03-21T00:26:31;8.40;94.10
21108;DHT22;10712;52.944;9.098;2023-03-21T00:28:57;8.40;94.10
21108;DHT22;10712;52.944;9.098;2023-03-21T00:31:24;8.40;94.10
21108;DHT22;10712;52.944;9.098;2023-03-21T00:33:50;8.50;94.10
21108;DHT22;10712;52.944;9.098;2023-03-21T00:36:16;8.50;94.10
21108;DHT22;10712;52.944;9.098;2023-03-21T00:38:42;8.50;94.10
21108;DHT22;10712;52.944;9.098;2023-03-21T00:41:10;8.40;94.10
21108;DHT22;10712;52.944;9.098;2023-03-21T00:43:38;8.50;94.10
21108;DHT22;10712;52.944;9.098;2023-03-21T00:46:05;8.50;94.20
21108;DHT22;10712;52.944;9.098;2023-03-21T00:48:31;8.50;94.20
21108;DHT22;10712;52.944;9.098;2023-03-21T00:50:57;8.50;94.20
21108;DHT22;10712;52.944;9.098;2023-03-21T00:53:25;8.50;94.20
21108;DHT22;10712;52.944;9.098;2023-03-21T00:55:52;8.50;94.20
21108;DHT22;10712;52.944;9.098;2023-03-21T00:58:18;8.50;94.20
21108;DHT22;10712;52.944;9.098;2023-03-21T01:00:44;8.50;94.30
21108;DHT22;10712;52.944;9.098;2023-03-21T01:03:14;8.50;94.30
21108;DHT22;10712;52.944;9.098;2023-03-21T01:05:46;8.50;94.30
21108;DHT22;10712;52.944;9.098;2023-03-21T01:08:36;8.50;94.30
21108;DHT22;10712;52.944;9.098;2023-03-21T01:11:06;8.50;94.30
21108;DHT22;10712;52.944;9.098;2023-03-21T01:13:34;8.50;94.30
21108;DHT22;10712;52.944;9.098;2023-03-21T01:16:01;8.50;94.30
21108;DHT22;10712;52.944;9.098;2023-03-21T01:18:29;8.50;94.30
21108;DHT22;10712;52.944;9.098;2023-03-21T01:20:58;8.50;94.30
21108;DHT22;10712;52.944;9.098;2023-03-21T01:23:27;8.50;94.30
21108;DHT22;10712;52.944;9.098;2023-03-21T01:25:54;8.50;94.30
21108;DHT22;10712;52.944;9.098;2023-03-21T01:28:23;8.50;94.30
21108;DHT22;10712;52.944;9.098;2023-03-21T01:30:51;8.50;94.30
21108;DHT22;10712;52.944;9.098;2023-03-21T01:33:17;8.50;94.30
21108;DHT22;10712;52.944;9.098;2023-03-21T01:35:44;8.50;94.30
21108;DHT22;10712;52.944;9.098;2023-03-21T01:38:11;8.50;94.30
21108;DHT22;10712;52.944;9.098;2023-03-21T01:40:40;8.50;94.30
21108;DHT22;10712;52.944;9.098;2023-03-21T01:43:25;8.50;94.30
21108;DHT22;10712;52.944;9.098;2023-03-21T01:46:08;8.50;94.30
21108;DHT22;10712;52.944;9.098;2023-03-21T01:52:17;8.50;94.30
21108;DHT22;10712;52.944;9.098;2023-03-21T01:54:46;8.50;94.30
21108;DHT22;10712;52.944;9.098;2023-03-21T01:57:26;8.50;94.30
21108;DHT22;10712;52.944;9.098;2023-03-21T02:00:02;8.50;94.30
21108;DHT22;10712;52.944;9.098;2023-03-21T02:02:49;8.50;94.30
21108;DHT22;10712;52.944;9.098;2023-03-21T02:05:46;8.60;94.30
21108;DHT22;10712;52.944;9.098;2023-03-21T02:08:17;8.60;94.30
21108;DHT22;10712;52.944;9.098;2023-03-21T02:10:46;8.60;94.30
21108;DHT22;10712;52.944;9.098;2023-03-21T02:13:20;8.60;94.30
21108;DHT22;10712;52.944;9.098;2023-03-21T02:16:11;8.60;94.30
21108;DHT22;10712;52.944;9.098;2023-03-21T02:19:16;8.60;94.30
21108;DHT22;10712;52.944;9.098;2023-03-21T02:27:55;8.60;94.30
21108;DHT22;10712;52.944;9.098;2023-03-21T02:33:27;8.60;94.30
21108;DHT22;10712;52.944;9.098;2023-03-21T02:36:15;8.60;94.30
21108;DHT22;10712;52.944;9.098;2023-03-21T02:39:07;8.60;94.30
21108;DHT22;10712;52.944;9.098;2023-03-21T02:44:28;8.60;94.30
21108;DHT22;10712;52.944;9.098;2023-03-21T02:47:12;8.60;94.30
21108;DHT22;10712;52.944;9.098;2023-03-21T02:49:48;8.60;94.30
21108;DHT22;10712;52.944;9.098;2023-03-21T02:52:23;8.60;94.30
21108;DHT22;10712;52.944;9.098;2023-03-21T02:54:54;8.60;94.30
21108;DHT22;10712;52.944;9.098;2023-03-21T02:57:29;8.60;94.30
21108;DHT22;10712;52.944;9.098;2023-03-21T03:00:00;8.60;94.30
21108;DHT22;10712;52.944;9.098;2023-03-21T03:02:36;8.60;94.30
21108;DHT22;10712;52.944;9.098;2023-03-21T03:05:23;8.70;94.30
21108;DHT22;10712;52.944;9.098;2023-03-21T03:19:38;8.70;94.30
21108;DHT22;10712;52.944;9.098;2023-03-21T03:22:16;8.70;94.30
21108;DHT22;10712;52.944;9.098;2023-03-21T03:27:36;8.70;94.30
21108;DHT22;10712;52.944;9.098;2023-03-21T03:30:08;8.70;94.30
21108;DHT22;10712;52.944;9.098;2023-03-21T03:32:50;8.70;94.30
21108;DHT22;10712;52.944;9.098;2023-03-21T03:35:23;8.70;94.30
21108;DHT22;10712;52.944;9.098;2023-03-21T03:37:54;8.70;94.30
21108;DHT22;10712;52.944;9.098;2023-03-21T03:43:10;8.70;94.30
21108;DHT22;10712;52.944;9.098;2023-03-21T03:45:48;8.70;94.30
21108;DHT22;10712;52.944;9.098;2023-03-21T03:48:52;8.70;94.30
21108;DHT22;10712;52.944;9.098;2023-03-21T03:51:43;8.70;94.30
21108;DHT22;10712;52.944;9.098;2023-03-21T03:54:39;8.70;94.30
21108;DHT22;10712;52.944;9.098;2023-03-21T03:57:09;8.70;94.30
21108;DHT22;10712;52.944;9.098;2023-03-21T03:59:39;8.70;94.30
21108;DHT22;10712;52.944;9.098;2023-03-21T04:02:26;8.70;94.30
21108;DHT22;10712;52.944;9.098;2023-03-21T04:04:53;8.70;94.30
21108;DHT22;10712;52.944;9.098;2023-03-21T04:07:22;8.70;94.30
21108;DHT22;10712;52.944;9.098;2023-03-21T04:09:50;8.70;94.30
21108;DHT22;10712;52.944;9.098;2023-03-21T04:12:18;8.70;94.30
21108;DHT22;10712;52.944;9.098;2023-03-21T04:15:05;8.70;94.30
21108;DHT22;10712;52.944;9.098;2023-03-21T04:17:31;8.70;94.30
21108;DHT22;10712;52.944;9.098;2023-03-21T04:19:57;8.70;94.30
21108;DHT22;10712;52.944;9.098;2023-03-21T04:22:24;8.70;94.30
21108;DHT22;10712;52.944;9.098;2023-03-21T04:24:52;8.70;94.30
21108;DHT22;10712;52.944;9.098;2023-03-21T04:27:18;8.70;94.30
21108;DHT22;10712;52.944;9.098;2023-03-21T04:30:08;8.70;94.30
21108;DHT22;10712;52.944;9.098;2023-03-21T04:32:52;8.70;94.30
21108;DHT22;10712;52.944;9.098;2023-03-21T04:35:22;8.70;94.30
21108;DHT22;10712;52.944;9.098;2023-03-21T04:37:49;8.70;94.30
21108;DHT22;10712;52.944;9.098;2023-03-21T04:40:16;8.70;94.30
21108;DHT22;10712;52.944;9.098;2023-03-21T04:42:44;8.70;94.30
21108;DHT22;10712;52.944;9.098;2023-03-21T04:45:12;8.70;94.30
21108;DHT22;10712;52.944;9.098;2023-03-21T04:47:43;8.70;94.30
21108;DHT22;10712;52.944;9.098;2023-03-21T04:50:10;8.70;94.30
21108;DHT22;10712;52.944;9.098;2023-03-21T04:52:38;8.70;94.30
21108;DHT22;10712;52.944;9.098;2023-03-21T04:55:04;8.70;94.30
21108;DHT22;10712;52.944;9.098;2023-03-21T04:57:36;8.70;94.30
21108;DHT22;10712;52.944;9.098;2023-03-21T05:00:04;8.70;94.30
21108;DHT22;10712;52.944;9.098;2023-03-21T05:02:35;8.70;94.30
21108;DHT22;10712;52.944;9.098;2023-03-21T05:05:02;8.70;94.30
21108;DHT22;10712;52.944;9.098;2023-03-21T05:07:28;8.70;94.30
21108;DHT22;10712;52.944;9.098;2023-03-21T05:09:56;8.70;94.30
21108;DHT22;10712;52.944;9.098;2023-03-21T05:12:22;8.70;94.30
21108;DHT22;10712;52.944;9.098;2023-03-21T05:14:48;8.70;94.30
21108;DHT22;10712;52.944;9.098;2023-03-21T05:17:14;8.70;94.30
21108;DHT22;10712;52.944;9.098;2023-03-21T05:19:49;8.70;94.30
21108;DHT22;10712;52.944;9.098;2023-03-21T05:22:18;8.70;94.30
21108;DHT22;10712;52.944;9.098;2023-03-21T05:24:45;8.70;94.30
21108;DHT22;10712;52.944;9.098;2023-03-21T05:27:25;8.70;94.30
21108;DHT22;10712;52.944;9.098;2023-03-21T05:30:07;8.70;94.30
21108;DHT22;10712;52.944;9.098;2023-03-21T05:32:38;8.70;94.30
21108;DHT22;10712;52.944;9.098;2023-03-21T05:35:08;8.70;94.30
21108;DHT22;10712;52.944;9.098;2023-03-21T05:37:34;8.80;94.30
21108;DHT22;10712;52.944;9.098;2023-03-21T05:40:00;8.80;94.30
21108;DHT22;10712;52.944;9.098;2023-03-21T05:42:30;8.70;94.30
21108;DHT22;10712;52.944;9.098;2023-03-21T05:44:56;8.70;94.30
21108;DHT22;10712;52.944;9.098;2023-03-21T05:47:28;8.80;94.30
21108;DHT22;10712;52.944;9.098;2023-03-21T05:49:56;8.80;94.30
21108;DHT22;10712;52.944;9.098;2023-03-21T05:52:24;8.80;94.30
21108;DHT22;10712;52.944;9.098;2023-03-21T05:54:50;8.80;94.30
21108;DHT22;10712;52.944;9.098;2023-03-21T05:57:19;8.80;94.30
21108;DHT22;10712;52.944;9.098;2023-03-21T05:59:56;8.80;94.30
21108;DHT22;10712;52.944;9.098;2023-03-21T06:02:22;8.80;94.30
21108;DHT22;10712;52.944;9.098;2023-03-21T06:04:48;8.80;94.30
21108;DHT22;10712;52.944;9.098;2023-03-21T06:07:15;8.80;94.30
21108;DHT22;10712;52.944;9.098;2023-03-21T06:09:41;8.80;94.30
21108;DHT22;10712;52.944;9.098;2023-03-21T06:12:07;8.80;94.30
21108;DHT22;10712;52.944;9.098;2023-03-21T06:14:51;8.90;94.30
21108;DHT22;10712;52.944;9.098;2023-03-21T06:17:22;8.80;94.30
21108;DHT22;10712;52.944;9.098;2023-03-21T06:19:53;8.90;94.30
21108;DHT22;10712;52.944;9.098;2023-03-21T06:22:41;8.90;94.30
21108;DHT22;10712;52.944;9.098;2023-03-21T06:25:07;8.90;94.30
21108;DHT22;10712;52.944;9.098;2023-03-21T06:27:34;8.90;94.30
21108;DHT22;10712;52.944;9.098;2023-03-21T06:30:00;8.90;94.30
21108;DHT22;10712;52.944;9.098;2023-03-21T06:32:32;9.00;94.30
21108;DHT22;10712;52.944;9.098;2023-03-21T06:35:07;9.00;94.30
21108;DHT22;10712;52.944;9.098;2023-03-21T06:37:34;9.00;94.30
21108;DHT22;10712;52.944;9.098;2023-03-21T06:40:00;9.00;94.30
21108;DHT22;10712;52.944;9.098;2023-03-21T06:42:26;9.00;94.30
21108;DHT22;10712;52.944;9.098;2023-03-21T06:44:58;9.00;94.30
21108;DHT22;10712;52.944;9.098;2023-03-21T06:47:24;9.00;94.30
21108;DHT22;10712;52.944;9.098;2023-03-21T06:49:50;9.10;94.30
21108;DHT22;10712;52.944;9.098;2023-03-21T06:52:16;9.10;94.30
21108;DHT22;10712;52.944;9.098;2023-03-21T06:54:42;9.10;94.30
21108;DHT22;10712;52.944;9.098;2023-03-21T06:57:13;9.10;94.30
21108;DHT22;10712;52.944;9.098;2023-03-21T06:59:40;9.20;94.30
21108;DHT22;10712;52.944;9.098;2023-03-21T07:02:10;9.20;94.30
21108;DHT22;10712;52.944;9.098;2023-03-21T07:04:43;9.20;94.30
21108;DHT22;10712;52.944;9.098;2023-03-21T07:07:15;9.20;94.30
21108;DHT22;10712;52.944;9.098;2023-03-21T07:09:41;9.20;94.30
21108;DHT22;10712;52.944;9.098;2023-03-21T07:12:07;9.20;94.30
21108;DHT22;10712;52.944;9.098;2023-03-21T07:14:51;9.30;94.30
21108;DHT22;10712;52.944;9.098;2023-03-21T07:17:17;9.30;94.30
21108;DHT22;10712;52.944;9.098;2023-03-21T07:19:43;9.30;94.30
21108;DHT22;10712;52.944;9.098;2023-03-21T07:22:09;9.30;94.30
21108;DHT22;10712;52.944;9.098;2023-03-21T07:24:35;9.40;94.30
21108;DHT22;10712;52.944;9.098;2023-03-21T07:27:01;9.40;94.30
21108;DHT22;10712;52.944;9.098;2023-03-21T07:29:27;9.40;94.30
21108;DHT22;10712;52.944;9.098;2023-03-21T07:31:52;9.40;94.30
21108;DHT22;10712;52.944;9.098;2023-03-21T07:34:21;9.40;94.30
21108;DHT22;10712;52.944;9.098;2023-03-21T07:36:47;9.50;94.30
21108;DHT22;10712;52.944;9.098;2023-03-21T07:39:13;9.50;94.30
21108;DHT22;10712;52.944;9.098;2023-03-21T07:41:38;9.50;94.30
21108;DHT22;10712;52.944;9.098;2023-03-21T07:44:30;9.60;94.30
21108;DHT22;10712;52.944;9.098;2023-03-21T07:47:01;9.60;94.30
21108;DHT22;10712;52.944;9.098;2023-03-21T07:49:28;9.60;94.30
21108;DHT22;10712;52.944;9.098;2023-03-21T07:51:54;9.60;94.30
21108;DHT22;10712;52.944;9.098;2023-03-21T07:54:19;9.60;94.30
21108;DHT22;10712;52.944;9.098;2023-03-21T07:56:47;9.70;94.30
21108;DHT22;10712;52.944;9.098;2023-03-21T07:59:13;9.70;94.30
21108;DHT22;10712;52.944;9.098;2023-03-21T08:01:38;9.70;94.30
21108;DHT22;10712;52.944;9.098;2023-03-21T08:04:04;9.70;94.30
21108;DHT22;10712;52.944;9.098;2023-03-21T08:06:31;9.80;94.30
21108;DHT22;10712;52.944;9.098;2023-03-21T08:08:57;9.80;94.30
21108;DHT22;10712;52.944;9.098;2023-03-21T08:11:23;9.80;94.30
21108;DHT22;10712;52.944;9.098;2023-03-21T08:13:50;9.80;94.30
21108;DHT22;10712;52.944;9.098;2023-03-21T08:16:16;9.90;94.30
21108;DHT22;10712;52.944;9.098;2023-03-21T08:18:42;9.90;94.30
21108;DHT22;10712;52.944;9.098;2023-03-21T08:21:08;9.90;94.30
21108;DHT22;10712;52.944;9.098;2023-03-21T08:23:34;9.90;94.30
21108;DHT22;10712;52.944;9.098;2023-03-21T08:26:00;9.90;94.30
21108;DHT22;10712;52.944;9.098;2023-03-21T08:28:26;9.90;94.20
21108;DHT22;10712;52.944;9.098;2023-03-21T08:30:52;9.90;94.10
21108;DHT22;10712;52.944;9.098;2023-03-21T08:33:19;10.00;93.80
21108;DHT22;10712;52.944;9.098;2023-03-21T08:35:45;10.00;93.80
21108;DHT22;10712;52.944;9.098;2023-03-21T08:38:11;10.00;93.80
21108;DHT22;10712;52.944;9.098;2023-03-21T08:40:37;10.00;93.90
21108;DHT22;10712;52.944;9.098;2023-03-21T08:43:03;10.00;93.90
21108;DHT22;10712;52.944;9.098;2023-03-21T08:45:29;10.00;93.80
21108;DHT22;10712;52.944;9.098;2023-03-21T08:47:55;10.00;93.80
21108;DHT22;10712;52.944;9.098;2023-03-21T08:50:23;10.00;93.80
21108;DHT22;10712;52.944;9.098;2023-03-21T08:52:51;10.00;93.60
21108;DHT22;10712;52.944;9.098;2023-03-21T08:55:18;10.00;93.50
21108;DHT22;10712;52.944;9.098;2023-03-21T08:57:44;10.00;93.30
21108;DHT22;10712;52.944;9.098;2023-03-21T09:00:14;10.00;93.20
21108;DHT22;10712;52.944;9.098;2023-03-21T09:02:45;10.00;93.30
21108;DHT22;10712;52.944;9.098;2023-03-21T09:05:16;10.00;93.30
21108;DHT22;10712;52.944;9.098;2023-03-21T09:07:43;10.00;93.30
21108;DHT22;10712;52.944;9.098;2023-03-21T09:10:12;10.10;93.40
21108;DHT22;10712;52.944;9.098;2023-03-21T09:12:41;10.00;93.40
21108;DHT22;10712;52.944;9.098;2023-03-21T09:15:09;10.10;93.40
21108;DHT22;10712;52.944;9.098;2023-03-21T09:17:37;10.10;93.40
21108;DHT22;10712;52.944;9.098;2023-03-21T09:20:12;10.10;93.30
21108;DHT22;10712;52.944;9.098;2023-03-21T09:22:45;10.10;93.10
21108;DHT22;10712;52.944;9.098;2023-03-21T09:25:15;10.20;92.90
21108;DHT22;10712;52.944;9.098;2023-03-21T09:27:41;10.20;92.90
21108;DHT22;10712;52.944;9.098;2023-03-21T09:30:14;10.20;92.70
21108;DHT22;10712;52.944;9.098;2023-03-21T09:32:42;10.20;92.50
21108;DHT22;10712;52.944;9.098;2023-03-21T09:35:09;10.20;92.50
21108;DHT22;10712;52.944;9.098;2023-03-21T09:37:37;10.20;92.30
21108;DHT22;10712;52.944;9.098;2023-03-21T09:40:17;10.30;92.20
21108;DHT22;10712;52.944;9.098;2023-03-21T09:43:05;10.30;92.30
21108;DHT22;10712;52.944;9.098;2023-03-21T09:51:39;10.30;92.40
21108;DHT22;10712;52.944;9.098;2023-03-21T09:54:25;10.20;92.50
21108;DHT22;10712;52.944;9.098;2023-03-21T09:57:01;10.20;92.60
21108;DHT22;10712;52.944;9.098;2023-03-21T09:59:37;10.20;92.70
21108;DHT22;10712;52.944;9.098;2023-03-21T10:02:33;10.20;92.90
21108;DHT22;10712;52.944;9.098;2023-03-21T10:07:56;10.20;93.30
21108;DHT22;10712;52.944;9.098;2023-03-21T10:10:47;10.20;93.40
21108;DHT22;10712;52.944;9.098;2023-03-21T10:13:21;10.20;93.50
21108;DHT22;10712;52.944;9.098;2023-03-21T10:15:55;10.20;93.60
21108;DHT22;10712;52.944;9.098;2023-03-21T10:18:23;10.30;93.60
21108;DHT22;10712;52.944;9.098;2023-03-21T10:20:51;10.30;93.50
21108;DHT22;10712;52.944;9.098;2023-03-21T10:23:19;10.30;93.60
21108;DHT22;10712;52.944;9.098;2023-03-21T10:25:52;10.30;93.60
21108;DHT22;10712;52.944;9.098;2023-03-21T10:28:27;10.40;93.50
21108;DHT22;10712;52.944;9.098;2023-03-21T10:31:01;10.40;93.40
21108;DHT22;10712;52.944;9.098;2023-03-21T10:33:38;10.40;93.40
21108;DHT22;10712;52.944;9.098;2023-03-21T10:36:11;10.40;93.40
21108;DHT22;10712;52.944;9.098;2023-03-21T10:38:50;10.50;93.60
21108;DHT22;10712;52.944;9.098;2023-03-21T10:41:19;10.50;93.60
21108;DHT22;10712;52.944;9.098;2023-03-21T10:43:46;10.60;93.60
21108;DHT22;10712;52.944;9.098;2023-03-21T10:46:27;10.60;93.40
21108;DHT22;10712;52.944;9.098;2023-03-21T10:48:53;10.60;93.20
21108;DHT22;10712;52.944;9.098;2023-03-21T10:51:21;10.70;93.10
21108;DHT22;10712;52.944;9.098;2023-03-21T10:53:56;10.70;93.00
21108;DHT22;10712;52.944;9.098;2023-03-21T10:56:29;10.70;92.80
21108;DHT22;10712;52.944;9.098;2023-03-21T10:59:00;10.70;92.70
21108;DHT22;10712;52.944;9.098;2023-03-21T11:01:35;10.70;92.70
21108;DHT22;10712;52.944;9.098;2023-03-21T11:04:19;10.70;92.80
21108;DHT22;10712;52.944;9.098;2023-03-21T11:09:54;10.70;93.00
21108;DHT22;10712;52.944;9.098;2023-03-21T11:12:39;10.70;93.20
21108;DHT22;10712;52.944;9.098;2023-03-21T11:18:18;10.80;93.60
21108;DHT22;10712;52.944;9.098;2023-03-21T11:23:18;10.80;93.80
21108;DHT22;10712;52.944;9.098;2023-03-21T11:25:47;10.80;93.90
21108;DHT22;10712;52.944;9.098;2023-03-21T11:28:20;10.70;93.90
21108;DHT22;10712;52.944;9.098;2023-03-21T11:30:56;10.70;94.00
21108;DHT22;10712;52.944;9.098;2023-03-21T11:33:27;10.70;94.10
21108;DHT22;10712;52.944;9.098;2023-03-21T11:38:42;10.80;94.30
21108;DHT22;10712;52.944;9.098;2023-03-21T11:41:21;10.80;94.20
21108;DHT22;10712;52.944;9.098;2023-03-21T11:43:56;10.80;94.20
21108;DHT22;10712;52.944;9.098;2023-03-21T11:46:24;10.90;94.30
21108;DHT22;10712;52.944;9.098;2023-03-21T11:48:51;10.90;94.20
21108;DHT22;10712;52.944;9.098;2023-03-21T11:51:30;10.90;94.30
21108;DHT22;10712;52.944;9.098;2023-03-21T11:57:00;10.90;94.30
21108;DHT22;10712;52.944;9.098;2023-03-21T12:03:06;10.90;94.30
21108;DHT22;10712;52.944;9.098;2023-03-21T12:05:59;10.90;94.30
21108;DHT22;10712;52.944;9.098;2023-03-21T12:08:47;11.00;94.30
21108;DHT22;10712;52.944;9.098;2023-03-21T12:17:11;11.00;94.30
21108;DHT22;10712;52.944;9.098;2023-03-21T12:25:36;11.00;94.10
21108;DHT22;10712;52.944;9.098;2023-03-21T12:28:30;11.00;94.10
21108;DHT22;10712;52.944;9.098;2023-03-21T12:31:30;10.90;94.20
21108;DHT22;10712;52.944;9.098;2023-03-21T12:46:03;10.90;94.30
21108;DHT22;10712;52.944;9.098;2023-03-21T12:48:54;10.90;94.20
21108;DHT22;10712;52.944;9.098;2023-03-21T12:51:29;10.90;94.10
21108;DHT22;10712;52.944;9.098;2023-03-21T12:54:20;10.90;94.20
21108;DHT22;10712;52.944;9.098;2023-03-21T12:57:00;10.90;94.30
21108;DHT22;10712;52.944;9.098;2023-03-21T12:59:58;10.90;94.30
21108;DHT22;10712;52.944;9.098;2023-03-21T13:02:46;10.90;94.30
21108;DHT22;10712;52.944;9.098;2023-03-21T13:08:23;10.90;94.30
21108;DHT22;10712;52.944;9.098;2023-03-21T13:11:07;11.00;94.30
21108;DHT22;10712;52.944;9.098;2023-03-21T13:13:57;10.90;94.30
21108;DHT22;10712;52.944;9.098;2023-03-21T13:19:40;11.00;94.30
21108;DHT22;10712;52.944;9.098;2023-03-21T13:22:25;10.90;94.30
21108;DHT22;10712;52.944;9.098;2023-03-21T13:27:40;10.90;94.20
21108;DHT22;10712;52.944;9.098;2023-03-21T13:30:22;10.80;94.30
21108;DHT22;10712;52.944;9.098;2023-03-21T13:32:57;10.80;94.30
21108;DHT22;10712;52.944;9.098;2023-03-21T13:35:39;10.80;94.20
21108;DHT22;10712;52.944;9.098;2023-03-21T13:38:20;10.70;94.30
21108;DHT22;10712;52.944;9.098;2023-03-21T13:41:38;10.70;94.30
21108;DHT22;10712;52.944;9.098;2023-03-21T13:46:43;10.70;94.30
21108;DHT22;10712;52.944;9.098;2023-03-21T13:51:54;10.70;94.30
21108;DHT22;10712;52.944;9.098;2023-03-21T14:00:31;10.80;94.30
21108;DHT22;10712;52.944;9.098;2023-03-21T14:03:14;10.80;94.30
21108;DHT22;10712;52.944;9.098;2023-03-21T14:05:49;10.80;94.30
21108;DHT22;10712;52.944;9.098;2023-03-21T14:08:17;10.90;94.30
21108;DHT22;10712;52.944;9.098;2023-03-21T14:10:47;10.90;94.30
21108;DHT22;10712;52.944;9.098;2023-03-21T14:13:20;10.90;94.30
21108;DHT22;10712;52.944;9.098;2023-03-21T14:15:54;10.90;94.30
21108;DHT22;10712;52.944;9.098;2023-03-21T14:18:26;10.90;94.30
21108;DHT22;10712;52.944;9.098;2023-03-21T14:20:54;10.90;94.30
21108;DHT22;10712;52.944;9.098;2023-03-21T14:23:22;10.90;94.30
21108;DHT22;10712;52.944;9.098;2023-03-21T14:25:49;10.90;94.30
21108;DHT22;10712;52.944;9.098;2023-03-21T14:28:24;10.90;94.20
21108;DHT22;10712;52.944;9.098;2023-03-21T14:30:55;10.90;94.30
21108;DHT22;10712;52.944;9.098;2023-03-21T14:33:40;10.90;94.10
21108;DHT22;10712;52.944;9.098;2023-03-21T14:36:22;10.90;94.10
21108;DHT22;10712;52.944;9.098;2023-03-21T14:42:05;11.00;94.20
21108;DHT22;10712;52.944;9.098;2023-03-21T14:44:39;11.00;94.30
21108;DHT22;10712;52.944;9.098;2023-03-21T14:47:15;11.00;94.30
21108;DHT22;10712;52.944;9.098;2023-03-21T14:49:43;11.00;94.30
21108;DHT22;10712;52.944;9.098;2023-03-21T14:52:16;11.00;94.30
21108;DHT22;10712;52.944;9.098;2023-03-21T14:54:55;11.00;94.30
21108;DHT22;10712;52.944;9.098;2023-03-21T14:57:27;11.00;94.30
21108;DHT22;10712;52.944;9.098;2023-03-21T15:00:00;11.10;94.30
21108;DHT22;10712;52.944;9.098;2023-03-21T15:02:39;11.10;94.30
21108;DHT22;10712;52.944;9.098;2023-03-21T15:05:16;11.10;94.30
21108;DHT22;10712;52.944;9.098;2023-03-21T15:10:27;11.10;94.10
21108;DHT22;10712;52.944;9.098;2023-03-21T15:13:00;11.10;94.20
21108;DHT22;10712;52.944;9.098;2023-03-21T15:15:37;11.10;94.30
21108;DHT22;10712;52.944;9.098;2023-03-21T15:18:05;11.10;94.30
21108;DHT22;10712;52.944;9.098;2023-03-21T15:20:34;11.10;94.30
21108;DHT22;10712;52.944;9.098;2023-03-21T15:23:11;11.20;94.10
21108;DHT22;10712;52.944;9.098;2023-03-21T15:25:42;11.10;94.10
21108;DHT22;10712;52.944;9.098;2023-03-21T15:28:12;11.10;94.10
21108;DHT22;10712;52.944;9.098;2023-03-21T15:30:49;11.10;94.10
21108;DHT22;10712;52.944;9.098;2023-03-21T15:33:17;11.10;94.10
21108;DHT22;10712;52.944;9.098;2023-03-21T15:35:48;11.10;94.20
21108;DHT22;10712;52.944;9.098;2023-03-21T15:38:38;11.10;94.20
21108;DHT22;10712;52.944;9.098;2023-03-21T15:46:47;11.10;94.20
21108;DHT22;10712;52.944;9.098;2023-03-21T15:51:45;11.10;94.10
21108;DHT22;10712;52.944;9.098;2023-03-21T15:54:16;11.10;94.10
21108;DHT22;10712;52.944;9.098;2023-03-21T15:56:52;11.10;94.10
21108;DHT22;10712;52.944;9.098;2023-03-21T15:59:23;11.20;93.80
21108;DHT22;10712;52.944;9.098;2023-03-21T16:01:52;11.10;93.40
21108;DHT22;10712;52.944;9.098;2023-03-21T16:04:18;11.10;93.40
21108;DHT22;10712;52.944;9.098;2023-03-21T16:07:14;11.10;93.30
21108;DHT22;10712;52.944;9.098;2023-03-21T16:09:44;11.10;93.10
21108;DHT22;10712;52.944;9.098;2023-03-21T16:12:12;11.10;93.10
21108;DHT22;10712;52.944;9.098;2023-03-21T16:14:40;11.10;93.10
21108;DHT22;10712;52.944;9.098;2023-03-21T16:17:27;11.10;92.90
21108;DHT22;10712;52.944;9.098;2023-03-21T16:19:58;11.10;92.70
21108;DHT22;10712;52.944;9.098;2023-03-21T16:22:25;11.10;92.80
21108;DHT22;10712;52.944;9.098;2023-03-21T16:24:52;11.10;92.90
21108;DHT22;10712;52.944;9.098;2023-03-21T16:27:19;11.10;93.00
21108;DHT22;10712;52.944;9.098;2023-03-21T16:29:45;11.00;93.20
21108;DHT22;10712;52.944;9.098;2023-03-21T16:32:16;11.00;93.40
21108;DHT22;10712;52.944;9.098;2023-03-21T16:34:42;11.00;93.40
21108;DHT22;10712;52.944;9.098;2023-03-21T16:37:11;11.00;93.40
21108;DHT22;10712;52.944;9.098;2023-03-21T16:39:40;11.00;93.40
21108;DHT22;10712;52.944;9.098;2023-03-21T16:42:09;10.90;93.50
21108;DHT22;10712;52.944;9.098;2023-03-21T16:44:36;11.00;93.60
21108;DHT22;10712;52.944;9.098;2023-03-21T16:47:12;11.00;93.40
21108;DHT22;10712;52.944;9.098;2023-03-21T16:49:43;10.90;93.40
21108;DHT22;10712;52.944;9.098;2023-03-21T16:52:10;10.90;93.40
21108;DHT22;10712;52.944;9.098;2023-03-21T16:54:38;10.90;93.40
21108;DHT22;10712;52.944;9.098;2023-03-21T16:57:06;10.90;93.40
21108;DHT22;10712;52.944;9.098;2023-03-21T16:59:41;10.90;93.40
21108;DHT22;10712;52.944;9.098;2023-03-21T17:02:12;10.90;93.40
21108;DHT22;10712;52.944;9.098;2023-03-21T17:04:38;10.80;93.40
21108;DHT22;10712;52.944;9.098;2023-03-21T17:07:08;10.80;93.40
21108;DHT22;10712;52.944;9.098;2023-03-21T17:09:39;10.80;93.50
21108;DHT22;10712;52.944;9.098;2023-03-21T17:12:10;10.80;93.50
21108;DHT22;10712;52.944;9.098;2023-03-21T17:14:39;10.80;93.50
21108;DHT22;10712;52.944;9.098;2023-03-21T17:17:09;10.80;93.60
21108;DHT22;10712;52.944;9.098;2023-03-21T17:19:36;10.80;93.60
21108;DHT22;10712;52.944;9.098;2023-03-21T17:22:01;10.80;93.60
21108;DHT22;10712;52.944;9.098;2023-03-21T17:24:27;10.80;93.60
21108;DHT22;10712;52.944;9.098;2023-03-21T17:26:53;10.80;93.60
21108;DHT22;10712;52.944;9.098;2023-03-21T17:29:19;10.80;93.60
21108;DHT22;10712;52.944;9.098;2023-03-21T17:31:45;10.80;93.60
21108;DHT22;10712;52.944;9.098;2023-03-21T17:34:13;10.70;93.60
21108;DHT22;10712;52.944;9.098;2023-03-21T17:36:41;10.70;93.60
21108;DHT22;10712;52.944;9.098;2023-03-21T17:39:16;10.70;93.70
21108;DHT22;10712;52.944;9.098;2023-03-21T17:41:44;10.70;93.60
21108;DHT22;10712;52.944;9.098;2023-03-21T17:44:10;10.60;93.60
21108;DHT22;10712;52.944;9.098;2023-03-21T17:46:36;10.60;93.60
21108;DHT22;10712;52.944;9.098;2023-03-21T17:49:03;10.60;93.80
21108;DHT22;10712;52.944;9.098;2023-03-21T17:51:29;10.50;93.70
21108;DHT22;10712;52.944;9.098;2023-03-21T17:53:57;10.50;93.60
21108;DHT22;10712;52.944;9.098;2023-03-21T17:56:26;10.40;93.60
21108;DHT22;10712;52.944;9.098;2023-03-21T17:58:59;10.40;93.50
21108;DHT22;10712;52.944;9.098;2023-03-21T18:01:28;10.30;93.50
21108;DHT22;10712;52.944;9.098;2023-03-21T18:03:58;10.20;93.70
21108;DHT22;10712;52.944;9.098;2023-03-21T18:06:26;10.20;93.70